createdAt,value
2022-08-25T00:01:41.818Z,2.00
2022-08-25T00:04:12.400Z,2.53
2022-08-25T00:06:44.666Z,2.27
2022-08-25T00:09:14.882Z,2.50
2022-08-25T00:11:43.544Z,2.10
2022-08-25T00:14:14.671Z,2.40
2022-08-25T00:16:43.359Z,2.47
2022-08-25T00:19:14.130Z,2.57
2022-08-25T00:21:44.028Z,2.30
2022-08-25T00:24:12.602Z,2.53
2022-08-25T00:26:41.398Z,3.00
2022-08-25T00:29:09.763Z,2.60
2022-08-25T00:31:39.035Z,2.23
2022-08-25T00:34:08.184Z,2.50
2022-08-25T00:36:35.946Z,2.60
2022-08-25T00:39:05.616Z,2.50
2022-08-25T00:41:35.195Z,2.70
2022-08-25T00:44:05.636Z,2.43
2022-08-25T00:46:36.742Z,2.50
2022-08-25T00:49:07.605Z,2.70
2022-08-25T00:51:38.554Z,2.53
2022-08-25T00:54:08.847Z,3.00
2022-08-25T00:56:36.547Z,2.77
2022-08-25T00:59:05.225Z,2.47
2022-08-25T01:01:33.010Z,2.80
2022-08-25T01:04:00.973Z,2.67
2022-08-25T01:06:29.489Z,2.90
2022-08-25T01:08:57.830Z,2.47
2022-08-25T01:11:27.843Z,2.50
2022-08-25T01:13:57.570Z,2.50
2022-08-25T01:16:27.110Z,2.93
2022-08-25T01:18:57.373Z,2.63
2022-08-25T01:21:27.825Z,2.50
2022-08-25T01:23:58.138Z,2.47
2022-08-25T01:26:30.482Z,2.40
2022-08-25T01:29:17.631Z,2.30
2022-08-25T01:31:45.930Z,2.67
2022-08-25T01:34:14.266Z,2.60
2022-08-25T01:36:45.089Z,2.43
2022-08-25T01:39:13.855Z,2.50
2022-08-25T01:41:51.525Z,2.70
2022-08-25T01:44:19.582Z,2.77
2022-08-25T01:46:47.297Z,2.63
2022-08-25T01:49:15.018Z,2.70
2022-08-25T01:51:48.127Z,2.87
2022-08-25T01:54:15.845Z,2.80
2022-08-25T01:56:43.563Z,2.60
2022-08-25T01:59:12.003Z,3.33
2022-08-25T02:01:39.774Z,2.90
2022-08-25T02:04:07.923Z,2.63
2022-08-25T02:06:35.872Z,2.70
2022-08-25T02:09:08.585Z,2.80
2022-08-25T02:11:37.152Z,2.60
2022-08-25T02:14:05.866Z,2.50
2022-08-25T02:16:36.950Z,2.63
2022-08-25T02:19:05.157Z,2.73
2022-08-25T02:21:32.838Z,2.50
2022-08-25T02:24:01.204Z,3.10
2022-08-25T02:26:30.935Z,2.83
2022-08-25T02:28:58.848Z,2.90
2022-08-25T02:31:27.154Z,2.60
2022-08-25T02:33:55.328Z,2.80
2022-08-25T02:36:23.265Z,3.13
2022-08-25T02:38:51.272Z,2.87
2022-08-25T02:41:23.715Z,2.90
2022-08-25T02:44:01.132Z,2.77
2022-08-25T02:46:29.238Z,3.00
2022-08-25T02:48:56.925Z,2.97
2022-08-25T02:51:25.652Z,2.97
2022-08-25T02:53:53.339Z,3.03
2022-08-25T02:56:21.229Z,2.80
2022-08-25T02:58:49.148Z,2.80
2022-08-25T03:01:18.773Z,3.03
2022-08-25T03:03:47.604Z,2.50
2022-08-25T03:06:17.230Z,3.03
2022-08-25T03:08:45.667Z,3.30
2022-08-25T03:11:13.530Z,3.33
2022-08-25T03:13:41.394Z,2.90
2022-08-25T03:16:11.411Z,2.73
2022-08-25T03:18:42.757Z,3.03
2022-08-25T03:21:12.119Z,2.70
2022-08-25T03:23:40.019Z,3.03
2022-08-25T03:26:25.422Z,2.90
2022-08-25T03:28:55.311Z,2.80
2022-08-25T03:31:23.217Z,3.30
2022-08-25T03:33:52.179Z,3.03
2022-08-25T03:36:19.828Z,3.00
2022-08-25T03:38:47.429Z,2.90
2022-08-25T03:41:16.888Z,2.87
2022-08-25T03:43:44.848Z,2.87
2022-08-25T03:46:20.531Z,2.90
2022-08-25T03:48:48.457Z,3.50
2022-08-25T03:51:22.703Z,3.20
2022-08-25T03:53:51.148Z,3.20
2022-08-25T03:56:19.350Z,2.87
2022-08-25T03:58:47.687Z,3.23
2022-08-25T04:01:16.010Z,3.17
2022-08-25T04:03:46.060Z,2.63
2022-08-25T04:06:14.419Z,2.80
2022-08-25T04:08:43.733Z,3.10
2022-08-25T04:11:13.955Z,3.30
2022-08-25T04:13:42.888Z,3.43
2022-08-25T04:16:12.865Z,3.17
2022-08-25T04:18:40.883Z,3.37
2022-08-25T04:21:10.249Z,3.63
2022-08-25T04:23:38.295Z,3.23
2022-08-25T04:26:11.254Z,3.10
2022-08-25T04:28:39.018Z,3.60
2022-08-25T04:31:08.066Z,3.50
2022-08-25T04:33:35.922Z,3.13
2022-08-25T04:36:03.734Z,3.40
2022-08-25T04:38:32.317Z,3.50
2022-08-25T04:41:01.215Z,3.00
2022-08-25T04:43:30.668Z,3.90
2022-08-25T04:45:58.473Z,3.70
2022-08-25T04:48:26.271Z,4.57
2022-08-25T04:50:53.931Z,3.90
2022-08-25T04:53:22.983Z,3.73
2022-08-25T04:55:51.031Z,4.33
2022-08-25T04:58:18.771Z,4.23
2022-08-25T05:00:47.792Z,4.37
2022-08-25T05:03:15.663Z,4.57
2022-08-25T05:05:43.302Z,4.23
2022-08-25T05:08:11.106Z,3.93
2022-08-25T05:10:40.574Z,4.33
2022-08-25T05:13:10.115Z,4.77
2022-08-25T05:16:00.725Z,4.73
2022-08-25T05:18:32.010Z,4.40
2022-08-25T05:21:04.229Z,4.00
2022-08-25T05:23:31.994Z,4.60
2022-08-25T05:26:03.787Z,4.97
2022-08-25T05:28:31.859Z,4.50
2022-08-25T05:31:00.873Z,4.80
2022-08-25T05:33:32.438Z,3.90
2022-08-25T05:36:01.184Z,4.27
2022-08-25T05:38:28.891Z,4.70
2022-08-25T05:40:58.454Z,4.03
2022-08-25T05:43:26.393Z,4.10
2022-08-25T05:45:55.318Z,4.00
2022-08-25T05:48:23.152Z,3.87
2022-08-25T05:50:55.396Z,3.47
2022-08-25T05:53:24.074Z,3.70
2022-08-25T05:55:55.213Z,3.57
2022-08-25T05:58:24.074Z,4.13
2022-08-25T06:00:52.125Z,3.43
2022-08-25T06:03:18.806Z,3.90
2022-08-25T06:05:46.436Z,3.87
2022-08-25T06:08:16.117Z,4.20
2022-08-25T06:10:44.240Z,3.77
2022-08-25T06:13:11.858Z,3.90
2022-08-25T06:15:40.349Z,4.07
2022-08-25T06:18:08.384Z,4.18
2022-08-25T06:20:37.092Z,3.60
2022-08-25T06:23:04.690Z,4.35
2022-08-25T06:25:33.815Z,3.60
2022-08-25T06:28:01.414Z,4.03
2022-08-25T06:30:29.226Z,3.65
2022-08-25T06:32:57.328Z,3.45
2022-08-25T06:35:24.976Z,4.07
2022-08-25T06:37:53.006Z,4.07
2022-08-25T06:40:21.178Z,4.07
2022-08-25T06:42:50.353Z,3.92
2022-08-25T06:45:18.539Z,3.92
2022-08-25T06:47:46.157Z,4.30
2022-08-25T06:50:13.846Z,3.50
2022-08-25T06:52:41.461Z,3.70
2022-08-25T06:55:10.463Z,3.53
2022-08-25T06:57:38.077Z,3.70
2022-08-25T07:00:09.384Z,3.25
2022-08-25T07:02:38.409Z,3.60
2022-08-25T07:05:08.290Z,3.60
2022-08-25T07:07:43.634Z,3.55
2022-08-25T07:10:12.845Z,3.40
2022-08-25T07:12:40.717Z,3.75
2022-08-25T07:15:19.821Z,3.50
2022-08-25T07:17:47.952Z,3.70
2022-08-25T07:20:16.746Z,3.90
2022-08-25T07:22:44.575Z,3.65
2022-08-25T07:25:12.344Z,3.63
2022-08-25T07:27:42.273Z,3.38
2022-08-25T07:30:11.864Z,3.88
2022-08-25T07:32:42.998Z,3.60
2022-08-25T07:35:16.114Z,3.83
2022-08-25T07:37:49.608Z,3.67
2022-08-25T07:40:19.896Z,4.03
2022-08-25T07:42:47.589Z,3.83
2022-08-25T07:45:17.394Z,3.67
2022-08-25T07:47:48.634Z,3.90
2022-08-25T07:50:19.676Z,4.05
2022-08-25T07:52:52.235Z,3.88
2022-08-25T07:55:23.310Z,4.00
2022-08-25T07:57:54.039Z,3.83
2022-08-25T08:00:27.604Z,3.55
2022-08-25T08:02:55.672Z,3.70
2022-08-25T08:05:24.254Z,4.03
2022-08-25T08:07:51.944Z,3.88
2022-08-25T08:13:08.025Z,4.15
2022-08-25T08:15:38.202Z,3.50
2022-08-25T08:18:07.357Z,3.70
2022-08-25T08:20:42.787Z,3.53
2022-08-25T08:23:11.203Z,3.85
2022-08-25T08:25:38.944Z,3.70
2022-08-25T08:28:07.190Z,3.67
2022-08-25T08:30:36.379Z,3.78
2022-08-25T08:33:10.009Z,3.50
2022-08-25T08:35:38.865Z,4.00
2022-08-25T08:38:14.788Z,4.03
2022-08-25T08:41:09.415Z,3.80
2022-08-25T08:43:37.999Z,4.22
2022-08-25T08:46:07.436Z,3.70
2022-08-25T08:48:54.507Z,4.28
2022-08-25T08:51:24.598Z,3.88
2022-08-25T08:53:57.188Z,3.67
2022-08-25T08:56:30.855Z,3.90
2022-08-25T08:59:05.616Z,3.97
2022-08-25T09:01:53.961Z,3.83
2022-08-25T09:04:28.099Z,3.67
2022-08-25T09:06:56.406Z,3.80
2022-08-25T09:09:28.705Z,3.53
2022-08-25T09:12:02.248Z,3.35
2022-08-25T09:14:41.083Z,3.33
2022-08-25T09:17:19.224Z,3.30
2022-08-25T09:20:18.540Z,3.08
2022-08-25T09:22:53.753Z,3.30
2022-08-25T09:25:48.821Z,3.05
2022-08-25T09:28:20.829Z,3.40
2022-08-25T09:30:54.873Z,3.53
2022-08-25T09:33:24.243Z,2.90
2022-08-25T09:35:55.106Z,3.40
2022-08-25T09:38:26.205Z,3.40
2022-08-25T09:40:57.071Z,3.50
2022-08-25T09:43:31.949Z,3.22
2022-08-25T09:46:02.884Z,3.10
2022-08-25T09:48:39.769Z,3.42
2022-08-25T09:51:19.007Z,3.35
2022-08-25T09:53:51.774Z,3.30
2022-08-25T09:56:22.459Z,3.42
2022-08-25T09:58:50.806Z,3.28
2022-08-25T10:01:22.323Z,3.38
2022-08-25T10:04:02.261Z,3.10
2022-08-25T10:06:37.607Z,3.33
2022-08-25T10:09:07.191Z,3.22
2022-08-25T10:11:41.691Z,3.30
2022-08-25T10:14:19.270Z,3.10
2022-08-25T10:16:47.802Z,3.28
2022-08-25T10:19:25.253Z,3.08
2022-08-25T10:22:10.930Z,2.85
2022-08-25T10:24:43.896Z,3.00
2022-08-25T10:27:20.440Z,3.20
2022-08-25T10:30:04.950Z,3.35
2022-08-25T10:32:41.716Z,3.08
2022-08-25T10:35:14.133Z,3.28
2022-08-25T10:37:51.297Z,3.55
2022-08-25T10:40:23.259Z,3.30
2022-08-25T10:43:03.435Z,3.10
2022-08-25T10:45:44.884Z,3.30
2022-08-25T10:48:47.739Z,2.95
2022-08-25T10:51:31.325Z,3.15
2022-08-25T10:54:07.390Z,3.15
2022-08-25T10:56:40.277Z,2.80
2022-08-25T10:59:18.189Z,3.10
2022-08-25T11:01:55.485Z,3.50
2022-08-25T11:04:26.130Z,2.92
2022-08-25T11:06:58.581Z,2.90
2022-08-25T11:09:31.679Z,3.22
2022-08-25T11:12:07.549Z,3.28
2022-08-25T11:14:38.139Z,2.72
2022-08-25T11:17:07.806Z,2.58
2022-08-25T11:19:38.445Z,3.03
2022-08-25T11:22:11.161Z,3.30
2022-08-25T11:24:53.224Z,2.83
2022-08-25T11:27:24.554Z,3.50
2022-08-25T11:30:01.783Z,2.95
2022-08-25T11:32:33.659Z,3.00
2022-08-25T11:35:03.154Z,2.60
2022-08-25T11:37:32.218Z,2.55
2022-08-25T11:40:24.206Z,2.97
2022-08-25T11:43:08.292Z,2.42
2022-08-25T11:46:02.469Z,2.63
2022-08-25T11:48:38.994Z,2.38
2022-08-25T11:51:09.382Z,2.80
2022-08-25T11:53:38.725Z,2.72
2022-08-25T11:56:13.848Z,2.70
2022-08-25T11:58:47.960Z,2.42
2022-08-25T12:02:10.182Z,2.30
2022-08-25T12:04:44.222Z,2.15
2022-08-25T12:08:13.021Z,2.75
2022-08-25T12:10:59.074Z,2.65
2022-08-25T12:13:49.559Z,2.78
2022-08-25T12:16:41.406Z,2.67
2022-08-25T12:19:29.979Z,2.88
2022-08-25T12:21:59.508Z,2.95
2022-08-25T12:24:49.594Z,2.88
2022-08-25T12:27:26.835Z,2.78
2022-08-25T12:30:02.816Z,2.70
2022-08-25T12:32:42.360Z,2.70
2022-08-25T12:35:18.787Z,2.90
2022-08-25T12:37:58.841Z,2.80
2022-08-25T12:40:31.587Z,2.70
2022-08-25T12:43:06.522Z,3.53
2022-08-25T12:45:40.176Z,2.83
2022-08-25T12:48:41.654Z,2.83
2022-08-25T12:51:16.690Z,2.63
2022-08-25T12:53:48.320Z,3.00
2022-08-25T12:56:23.792Z,3.15
2022-08-25T12:59:01.115Z,2.75
2022-08-25T13:01:37.787Z,2.78
2022-08-25T13:04:23.677Z,2.80
2022-08-25T13:07:06.536Z,2.83
2022-08-25T13:10:02.280Z,2.72
2022-08-25T13:12:35.210Z,2.35
2022-08-25T13:15:03.146Z,3.00
2022-08-25T13:17:34.174Z,2.75
2022-08-25T13:20:20.475Z,2.88
2022-08-25T13:22:55.149Z,3.33
2022-08-25T13:25:32.665Z,2.97
2022-08-25T13:28:03.158Z,3.20
2022-08-25T13:30:33.556Z,3.10
2022-08-25T13:33:17.010Z,3.42
2022-08-25T13:35:49.091Z,2.95
2022-08-25T13:38:19.661Z,3.10
2022-08-25T13:40:47.363Z,3.13
2022-08-25T13:43:15.639Z,3.03
2022-08-25T13:45:45.272Z,2.42
2022-08-25T13:48:20.884Z,2.85
2022-08-25T13:50:52.106Z,3.28
2022-08-25T13:53:24.016Z,2.90
2022-08-25T13:55:53.590Z,3.15
2022-08-25T13:58:24.402Z,2.95
2022-08-25T14:01:23.530Z,3.00
2022-08-25T14:03:55.127Z,3.17
2022-08-25T14:06:24.439Z,2.90
2022-08-25T14:09:15.960Z,2.85
2022-08-25T14:11:46.406Z,3.03
2022-08-25T14:14:31.969Z,3.20
2022-08-25T14:17:08.230Z,2.80
2022-08-25T14:19:50.746Z,2.70
2022-08-25T14:22:18.775Z,3.28
2022-08-25T14:24:46.433Z,3.30
2022-08-25T14:27:14.675Z,3.17
2022-08-25T14:29:42.353Z,3.30
2022-08-25T14:32:10.734Z,2.80
2022-08-25T14:34:39.833Z,2.80
2022-08-25T14:37:15.600Z,3.72
2022-08-25T14:39:44.180Z,3.00
2022-08-25T14:42:14.076Z,3.28
2022-08-25T14:44:43.588Z,2.90
2022-08-25T14:47:11.895Z,3.13
2022-08-25T14:49:43.930Z,3.25
2022-08-25T14:52:20.145Z,3.28
2022-08-25T14:54:50.598Z,3.33
2022-08-25T14:57:18.235Z,3.22
2022-08-25T14:59:46.151Z,3.15
2022-08-25T15:02:18.543Z,3.00
2022-08-25T15:04:51.854Z,3.40
2022-08-25T15:07:39.708Z,3.33
2022-08-25T15:10:08.693Z,2.75
2022-08-25T15:12:47.764Z,2.90
2022-08-25T15:15:15.999Z,3.00
2022-08-25T15:17:46.940Z,2.80
2022-08-25T15:20:17.243Z,3.25
2022-08-25T15:22:48.042Z,2.83
2022-08-25T15:25:16.772Z,3.17
2022-08-25T15:27:45.366Z,3.05
2022-08-25T15:30:14.850Z,3.10
2022-08-25T15:32:42.943Z,3.20
2022-08-25T15:35:11.666Z,3.15
2022-08-25T15:37:43.616Z,3.10
2022-08-25T15:40:14.461Z,3.05
2022-08-25T15:42:42.925Z,2.92
2022-08-25T15:45:14.387Z,3.20
2022-08-25T15:47:42.249Z,2.95
2022-08-25T15:50:14.494Z,3.22
2022-08-25T15:52:46.291Z,3.40
2022-08-25T15:55:16.815Z,3.63
2022-08-25T15:57:44.657Z,3.00
2022-08-25T16:00:13.567Z,3.15
2022-08-25T16:02:41.512Z,2.90
2022-08-25T16:05:10.810Z,3.25
2022-08-25T16:07:39.148Z,3.35
2022-08-25T16:10:07.342Z,3.17
2022-08-25T16:12:36.450Z,2.92
2022-08-25T16:15:04.810Z,3.38
2022-08-25T16:17:32.718Z,2.95
2022-08-25T16:20:00.621Z,3.47
2022-08-25T16:22:28.370Z,3.10
2022-08-25T16:24:56.155Z,3.22
2022-08-25T16:27:24.187Z,3.38
2022-08-25T16:29:53.443Z,3.05
2022-08-25T16:32:21.980Z,3.17
2022-08-25T16:34:49.674Z,3.00
2022-08-25T16:37:17.313Z,3.10
2022-08-25T16:39:45.882Z,3.35
2022-08-25T16:42:14.066Z,3.28
2022-08-25T16:44:41.754Z,3.03
2022-08-25T16:47:10.900Z,3.00
2022-08-25T16:49:42.277Z,3.40
2022-08-25T16:52:25.399Z,3.20
2022-08-25T16:55:16.290Z,3.58
2022-08-25T16:57:47.733Z,3.58
2022-08-25T17:00:18.035Z,3.20
2022-08-25T17:02:48.300Z,3.80
2022-08-25T17:05:16.373Z,3.55
2022-08-25T17:08:07.678Z,3.08
2022-08-25T17:10:37.432Z,3.40
2022-08-25T17:13:06.095Z,3.40
2022-08-25T17:15:33.718Z,3.50
2022-08-25T17:18:02.717Z,3.20
2022-08-25T17:20:32.608Z,3.28
2022-08-25T17:23:00.914Z,3.65
2022-08-25T17:25:28.744Z,2.97
2022-08-25T17:27:57.159Z,3.28
2022-08-25T17:30:25.097Z,3.00
2022-08-25T17:32:53.947Z,3.50
2022-08-25T17:35:23.347Z,3.42
2022-08-25T17:37:51.097Z,3.38
2022-08-25T17:40:21.815Z,2.75
2022-08-25T17:42:52.589Z,3.70
2022-08-25T17:45:20.229Z,3.25
2022-08-25T17:47:47.899Z,3.33
2022-08-25T17:50:15.703Z,3.25
2022-08-25T17:52:45.931Z,3.40
2022-08-25T17:55:13.832Z,3.00
2022-08-25T17:57:43.781Z,3.42
2022-08-25T18:00:13.322Z,3.38
2022-08-25T18:02:42.861Z,3.55
2022-08-25T18:05:12.879Z,3.33
2022-08-25T18:07:41.049Z,3.38
2022-08-25T18:10:14.246Z,3.20
2022-08-25T18:12:41.852Z,4.00
2022-08-25T18:15:11.798Z,3.50
2022-08-25T18:17:41.948Z,3.22
2022-08-25T18:20:11.655Z,3.33
2022-08-25T18:22:41.049Z,3.75
2022-08-25T18:25:14.970Z,3.60
2022-08-25T18:27:44.682Z,3.85
2022-08-25T18:30:13.295Z,3.83
2022-08-25T18:32:41.653Z,3.90
2022-08-25T18:35:10.537Z,3.83
2022-08-25T18:37:55.963Z,4.00
2022-08-25T18:40:26.297Z,3.90
2022-08-25T18:42:57.441Z,4.47
2022-08-25T18:45:28.620Z,4.25
2022-08-25T18:47:57.487Z,4.10
2022-08-25T18:50:26.163Z,4.00
2022-08-25T18:52:55.192Z,3.70
2022-08-25T18:55:26.166Z,3.53
2022-08-25T18:57:54.167Z,4.27
2022-08-25T19:00:24.542Z,4.00
2022-08-25T19:02:55.507Z,4.03
2022-08-25T19:05:27.215Z,3.37
2022-08-25T19:07:56.287Z,3.83
2022-08-25T19:10:25.327Z,4.03
2022-08-25T19:12:54.926Z,3.83
2022-08-25T19:15:25.477Z,3.77
2022-08-25T19:17:53.667Z,3.60
2022-08-25T19:20:23.045Z,4.23
2022-08-25T19:22:51.012Z,3.83
2022-08-25T19:25:19.363Z,4.03
2022-08-25T19:27:49.434Z,4.17
2022-08-25T19:30:18.961Z,3.93
2022-08-25T19:32:47.902Z,3.93
2022-08-25T19:35:19.194Z,4.00
2022-08-25T19:37:46.883Z,4.00
2022-08-25T19:40:18.227Z,4.30
2022-08-25T19:42:46.065Z,4.30
2022-08-25T19:45:15.985Z,4.33
2022-08-25T19:47:44.064Z,4.00
2022-08-25T19:50:16.661Z,4.20
2022-08-25T19:52:45.082Z,4.00
2022-08-25T19:55:13.398Z,3.73
2022-08-25T19:57:42.778Z,4.20
2022-08-25T20:00:14.898Z,3.87
2022-08-25T20:02:44.246Z,3.97
2022-08-25T20:05:12.631Z,4.00
2022-08-25T20:07:41.212Z,4.00
2022-08-25T20:10:13.982Z,3.83
2022-08-25T20:12:44.658Z,4.17
2022-08-25T20:15:14.650Z,3.70
2022-08-25T20:17:45.994Z,4.47
2022-08-25T20:20:16.460Z,4.20
2022-08-25T20:22:44.173Z,4.13
2022-08-25T20:25:13.540Z,4.17
2022-08-25T20:27:43.150Z,4.33
2022-08-25T20:30:14.189Z,4.20
2022-08-25T20:32:45.843Z,4.00
2022-08-25T20:35:14.207Z,4.40
2022-08-25T20:37:42.289Z,5.10
2022-08-25T20:40:11.628Z,4.60
2022-08-25T20:42:40.608Z,4.67
2022-08-25T20:45:12.270Z,4.77
2022-08-25T20:47:40.076Z,4.80
2022-08-25T20:50:11.902Z,5.47
2022-08-25T20:52:42.549Z,5.60
2022-08-25T20:55:12.247Z,4.90
2022-08-25T20:57:40.343Z,4.67
2022-08-25T21:00:10.350Z,4.80
2022-08-25T21:02:38.062Z,4.67
2022-08-25T21:05:07.215Z,5.13
2022-08-25T21:07:36.256Z,4.80
2022-08-25T21:10:07.033Z,4.93
2022-08-25T21:12:40.387Z,4.87
2022-08-25T21:15:11.358Z,4.50
2022-08-25T21:17:39.119Z,4.50
2022-08-25T21:20:08.836Z,4.70
2022-08-25T21:22:39.810Z,4.90
2022-08-25T21:25:08.990Z,4.73
2022-08-25T21:27:36.620Z,5.10
2022-08-25T21:30:07.573Z,5.00
2022-08-25T21:32:35.440Z,4.73
2022-08-25T21:35:03.313Z,4.87
2022-08-25T21:37:35.683Z,4.80
2022-08-25T21:40:06.995Z,4.70
2022-08-25T21:42:36.591Z,4.63
2022-08-25T21:45:04.608Z,5.17
2022-08-25T21:47:42.178Z,4.90
2022-08-25T21:50:10.583Z,4.87
2022-08-25T21:52:38.748Z,4.80
2022-08-25T21:55:15.690Z,4.83
2022-08-25T21:57:44.138Z,5.00
2022-08-25T22:00:14.257Z,5.13
2022-08-25T22:02:43.939Z,5.10
2022-08-25T22:05:11.999Z,5.73
2022-08-25T22:07:44.119Z,5.40
2022-08-25T22:10:17.955Z,5.60
2022-08-25T22:12:46.151Z,5.50
2022-08-25T22:15:15.569Z,5.47
2022-08-25T22:17:43.659Z,5.40
2022-08-25T22:20:12.406Z,5.47
2022-08-25T22:22:40.400Z,5.30
2022-08-25T22:25:08.545Z,5.70
2022-08-25T22:27:38.155Z,5.80
2022-08-25T22:30:07.909Z,5.83
2022-08-25T22:32:36.277Z,5.47
2022-08-25T22:35:05.411Z,5.80
2022-08-25T22:37:35.001Z,5.57
2022-08-25T22:40:04.421Z,5.67
2022-08-25T22:42:32.369Z,5.70
2022-08-25T22:45:02.123Z,5.80
2022-08-25T22:47:31.161Z,5.00
2022-08-25T22:49:59.259Z,5.77
2022-08-25T22:52:33.503Z,5.57
2022-08-25T22:55:02.752Z,5.97
2022-08-25T22:57:30.473Z,5.37
2022-08-25T22:59:59.476Z,5.83
2022-08-25T23:02:30.471Z,6.13
2022-08-25T23:04:58.400Z,6.20
2022-08-25T23:07:28.661Z,6.23
2022-08-25T23:09:56.329Z,5.60
2022-08-25T23:12:25.266Z,5.50
2022-08-25T23:14:52.914Z,5.87
2022-08-25T23:17:20.574Z,5.77
2022-08-25T23:19:49.886Z,6.47
2022-08-25T23:22:17.486Z,6.13
2022-08-25T23:24:47.930Z,5.70
2022-08-25T23:27:17.620Z,6.00
2022-08-25T23:29:47.811Z,5.83
2022-08-25T23:32:16.980Z,5.97
2022-08-25T23:34:46.318Z,4.90
2022-08-25T23:37:18.428Z,5.77
2022-08-25T23:39:49.898Z,5.33
2022-08-25T23:42:19.064Z,5.40
2022-08-25T23:44:46.750Z,5.40
2022-08-25T23:47:14.976Z,5.63
2022-08-25T23:49:42.637Z,5.40
2022-08-25T23:52:10.302Z,5.53
2022-08-25T23:54:39.807Z,5.77
2022-08-25T23:57:07.505Z,6.10
2022-08-25T23:59:37.411Z,5.47
